Terminal Aerodrome Forecast
Issued by NWS

Home | Current Version | Previous Version | Graphics & Text | Print | Product List | Glossary On
Versions: 1 2 3 4 5 6 7 8 9 10 11 12 13 14 15 16 17 18 19
109
FTUS43 KICT 211120
TAFRSL
TAF
KRSL 211120Z 2112/2212 05012KT P6SM VCSH OVC030
     FM211300 05011KT 5SM BR VCSH OVC015
     FM211500 04011KT 5SM BR VCSH OVC008
     FM220200 36009KT P6SM OVC008=

USA.gov is the U.S. government's official web portal to all federal, state and local government web resources and services.